sensor_id;sensor_type;location;lat;lon;timestamp;P1;durP1;ratioP1;P2;durP2;ratioP2
66384;SDS011;53426;55.872;37.462;2023-04-30T00:00:25;32.63;;;12.98;;
66384;SDS011;53426;55.872;37.462;2023-04-30T00:02:51;35.30;;;12.20;;
66384;SDS011;53426;55.872;37.462;2023-04-30T00:05:17;32.40;;;10.77;;
66384;SDS011;53426;55.872;37.462;2023-04-30T00:07:45;47.70;;;15.00;;
66384;SDS011;53426;55.872;37.462;2023-04-30T00:10:12;26.77;;;11.52;;
66384;SDS011;53426;55.872;37.462;2023-04-30T00:12:39;34.58;;;13.50;;
66384;SDS011;53426;55.872;37.462;2023-04-30T00:15:05;34.88;;;13.10;;
66384;SDS011;53426;55.872;37.462;2023-04-30T00:17:33;41.90;;;13.85;;
66384;SDS011;53426;55.872;37.462;2023-04-30T00:19:59;24.63;;;12.80;;
66384;SDS011;53426;55.872;37.462;2023-04-30T00:22:30;38.50;;;12.38;;
66384;SDS011;53426;55.872;37.462;2023-04-30T00:24:57;22.48;;;11.63;;
66384;SDS011;53426;55.872;37.462;2023-04-30T00:27:23;32.60;;;14.20;;
66384;SDS011;53426;55.872;37.462;2023-04-30T00:29:49;23.27;;;11.93;;
66384;SDS011;53426;55.872;37.462;2023-04-30T00:32:16;46.45;;;15.50;;
66384;SDS011;53426;55.872;37.462;2023-04-30T00:34:43;36.05;;;16.75;;
66384;SDS011;53426;55.872;37.462;2023-04-30T00:37:10;29.75;;;12.82;;
66384;SDS011;53426;55.872;37.462;2023-04-30T00:39:36;28.65;;;14.30;;
66384;SDS011;53426;55.872;37.462;2023-04-30T00:42:02;29.48;;;14.32;;
66384;SDS011;53426;55.872;37.462;2023-04-30T00:44:28;35.67;;;15.25;;
66384;SDS011;53426;55.872;37.462;2023-04-30T00:46:54;25.52;;;14.00;;
66384;SDS011;53426;55.872;37.462;2023-04-30T00:49:20;28.70;;;13.73;;
66384;SDS011;53426;55.872;37.462;2023-04-30T00:51:46;36.83;;;15.43;;
66384;SDS011;53426;55.872;37.462;2023-04-30T00:54:13;32.90;;;13.88;;
66384;SDS011;53426;55.872;37.462;2023-04-30T00:56:40;33.63;;;13.00;;
66384;SDS011;53426;55.872;37.462;2023-04-30T00:59:06;33.17;;;14.23;;
66384;SDS011;53426;55.872;37.462;2023-04-30T01:01:34;39.88;;;14.77;;
66384;SDS011;53426;55.872;37.462;2023-04-30T01:04:02;23.98;;;14.13;;
66384;SDS011;53426;55.872;37.462;2023-04-30T01:06:28;27.92;;;13.35;;
66384;SDS011;53426;55.872;37.462;2023-04-30T01:08:54;28.75;;;12.50;;
66384;SDS011;53426;55.872;37.462;2023-04-30T01:11:32;26.75;;;13.68;;
66384;SDS011;53426;55.872;37.462;2023-04-30T01:20:11;28.58;;;13.95;;
66384;SDS011;53426;55.872;37.462;2023-04-30T01:28:13;40.38;;;13.10;;
66384;SDS011;53426;55.872;37.462;2023-04-30T01:30:49;25.38;;;12.10;;
66384;SDS011;53426;55.872;37.462;2023-04-30T01:33:15;28.85;;;12.77;;
66384;SDS011;53426;55.872;37.462;2023-04-30T01:35:48;39.60;;;16.02;;
66384;SDS011;53426;55.872;37.462;2023-04-30T01:41:10;30.05;;;13.98;;
66384;SDS011;53426;55.872;37.462;2023-04-30T01:46:25;28.10;;;13.68;;
66384;SDS011;53426;55.872;37.462;2023-04-30T01:51:40;30.67;;;14.57;;
66384;SDS011;53426;55.872;37.462;2023-04-30T01:54:11;30.40;;;14.88;;
66384;SDS011;53426;55.872;37.462;2023-04-30T01:57:01;32.40;;;15.38;;
66384;SDS011;53426;55.872;37.462;2023-04-30T01:59:34;38.55;;;14.18;;
66384;SDS011;53426;55.872;37.462;2023-04-30T02:02:02;25.02;;;13.23;;
66384;SDS011;53426;55.872;37.462;2023-04-30T02:04:28;40.78;;;16.25;;
66384;SDS011;53426;55.872;37.462;2023-04-30T02:06:54;38.25;;;14.50;;
66384;SDS011;53426;55.872;37.462;2023-04-30T02:09:20;28.50;;;14.05;;
66384;SDS011;53426;55.872;37.462;2023-04-30T02:11:48;26.17;;;13.90;;
66384;SDS011;53426;55.872;37.462;2023-04-30T02:14:15;34.58;;;15.43;;
66384;SDS011;53426;55.872;37.462;2023-04-30T02:17:01;35.17;;;17.23;;
66384;SDS011;53426;55.872;37.462;2023-04-30T02:19:27;30.98;;;15.52;;
66384;SDS011;53426;55.872;37.462;2023-04-30T02:21:53;29.27;;;13.30;;
66384;SDS011;53426;55.872;37.462;2023-04-30T02:24:19;45.72;;;16.90;;
66384;SDS011;53426;55.872;37.462;2023-04-30T02:26:46;36.13;;;16.55;;
66384;SDS011;53426;55.872;37.462;2023-04-30T02:29:12;33.28;;;17.25;;
66384;SDS011;53426;55.872;37.462;2023-04-30T02:31:40;46.53;;;16.90;;
66384;SDS011;53426;55.872;37.462;2023-04-30T02:34:09;40.75;;;18.73;;
66384;SDS011;53426;55.872;37.462;2023-04-30T02:36:35;41.40;;;17.85;;
66384;SDS011;53426;55.872;37.462;2023-04-30T02:39:01;44.70;;;18.98;;
66384;SDS011;53426;55.872;37.462;2023-04-30T02:41:27;47.88;;;19.98;;
66384;SDS011;53426;55.872;37.462;2023-04-30T02:43:53;38.42;;;18.98;;
66384;SDS011;53426;55.872;37.462;2023-04-30T02:46:19;37.85;;;18.80;;
66384;SDS011;53426;55.872;37.462;2023-04-30T02:48:46;64.70;;;19.65;;
66384;SDS011;53426;55.872;37.462;2023-04-30T02:51:14;40.15;;;19.00;;
66384;SDS011;53426;55.872;37.462;2023-04-30T02:53:40;43.50;;;18.73;;
66384;SDS011;53426;55.872;37.462;2023-04-30T02:56:06;68.53;;;17.88;;
66384;SDS011;53426;55.872;37.462;2023-04-30T02:58:32;42.15;;;18.80;;
66384;SDS011;53426;55.872;37.462;2023-04-30T03:00:58;30.02;;;17.17;;
66384;SDS011;53426;55.872;37.462;2023-04-30T03:03:24;43.45;;;17.95;;
66384;SDS011;53426;55.872;37.462;2023-04-30T03:05:51;44.65;;;18.27;;
66384;SDS011;53426;55.872;37.462;2023-04-30T03:08:17;38.38;;;17.67;;
66384;SDS011;53426;55.872;37.462;2023-04-30T03:10:43;40.63;;;18.48;;
66384;SDS011;53426;55.872;37.462;2023-04-30T03:13:09;39.92;;;18.15;;
66384;SDS011;53426;55.872;37.462;2023-04-30T03:15:35;32.08;;;16.50;;
66384;SDS011;53426;55.872;37.462;2023-04-30T03:18:03;34.67;;;18.42;;
66384;SDS011;53426;55.872;37.462;2023-04-30T03:20:30;33.70;;;18.30;;
66384;SDS011;53426;55.872;37.462;2023-04-30T03:22:56;33.08;;;16.50;;
66384;SDS011;53426;55.872;37.462;2023-04-30T03:25:24;33.63;;;17.40;;
66384;SDS011;53426;55.872;37.462;2023-04-30T03:27:50;44.25;;;22.23;;
66384;SDS011;53426;55.872;37.462;2023-04-30T03:30:17;34.15;;;18.08;;
66384;SDS011;53426;55.872;37.462;2023-04-30T03:32:43;37.15;;;17.67;;
66384;SDS011;53426;55.872;37.462;2023-04-30T03:35:10;36.97;;;15.98;;
66384;SDS011;53426;55.872;37.462;2023-04-30T03:37:37;34.08;;;16.90;;
66384;SDS011;53426;55.872;37.462;2023-04-30T03:40:03;28.63;;;16.40;;
66384;SDS011;53426;55.872;37.462;2023-04-30T03:42:30;33.42;;;15.75;;
66384;SDS011;53426;55.872;37.462;2023-04-30T03:44:56;31.27;;;15.40;;
66384;SDS011;53426;55.872;37.462;2023-04-30T03:47:23;38.65;;;15.35;;
66384;SDS011;53426;55.872;37.462;2023-04-30T03:49:49;39.75;;;16.08;;
66384;SDS011;53426;55.872;37.462;2023-04-30T03:52:20;34.92;;;16.02;;
66384;SDS011;53426;55.872;37.462;2023-04-30T03:54:47;22.20;;;13.27;;
66384;SDS011;53426;55.872;37.462;2023-04-30T03:57:13;25.38;;;13.32;;
66384;SDS011;53426;55.872;37.462;2023-04-30T03:59:40;31.38;;;14.55;;
66384;SDS011;53426;55.872;37.462;2023-04-30T04:02:07;30.38;;;14.07;;
66384;SDS011;53426;55.872;37.462;2023-04-30T04:04:36;32.75;;;13.18;;
66384;SDS011;53426;55.872;37.462;2023-04-30T04:07:02;25.15;;;13.02;;
66384;SDS011;53426;55.872;37.462;2023-04-30T04:09:30;23.58;;;14.20;;
66384;SDS011;53426;55.872;37.462;2023-04-30T04:11:56;28.88;;;13.63;;
66384;SDS011;53426;55.872;37.462;2023-04-30T04:14:23;29.60;;;13.63;;
66384;SDS011;53426;55.872;37.462;2023-04-30T04:16:50;27.80;;;13.20;;
66384;SDS011;53426;55.872;37.462;2023-04-30T04:19:17;29.17;;;14.00;;
66384;SDS011;53426;55.872;37.462;2023-04-30T04:21:43;28.92;;;13.27;;
66384;SDS011;53426;55.872;37.462;2023-04-30T04:24:13;30.85;;;12.98;;
66384;SDS011;53426;55.872;37.462;2023-04-30T04:26:40;29.38;;;13.10;;
66384;SDS011;53426;55.872;37.462;2023-04-30T04:29:08;34.55;;;13.95;;
66384;SDS011;53426;55.872;37.462;2023-04-30T04:31:57;30.38;;;14.13;;
66384;SDS011;53426;55.872;37.462;2023-04-30T04:34:31;29.00;;;14.15;;
66384;SDS011;53426;55.872;37.462;2023-04-30T04:36:57;36.33;;;15.25;;
66384;SDS011;53426;55.872;37.462;2023-04-30T04:39:23;29.65;;;14.63;;
66384;SDS011;53426;55.872;37.462;2023-04-30T04:41:49;31.92;;;15.15;;
66384;SDS011;53426;55.872;37.462;2023-04-30T04:44:15;36.35;;;15.45;;
66384;SDS011;53426;55.872;37.462;2023-04-30T04:46:43;32.00;;;15.30;;
66384;SDS011;53426;55.872;37.462;2023-04-30T04:49:11;39.17;;;15.18;;
66384;SDS011;53426;55.872;37.462;2023-04-30T04:51:39;31.55;;;15.52;;
66384;SDS011;53426;55.872;37.462;2023-04-30T04:54:10;33.55;;;15.27;;
66384;SDS011;53426;55.872;37.462;2023-04-30T04:56:36;34.53;;;15.75;;
66384;SDS011;53426;55.872;37.462;2023-04-30T04:59:05;39.05;;;14.88;;
66384;SDS011;53426;55.872;37.462;2023-04-30T05:01:32;44.60;;;15.25;;
66384;SDS011;53426;55.872;37.462;2023-04-30T05:03:57;33.53;;;15.55;;
66384;SDS011;53426;55.872;37.462;2023-04-30T05:06:24;41.05;;;15.60;;
66384;SDS011;53426;55.872;37.462;2023-04-30T05:08:50;28.52;;;14.68;;
66384;SDS011;53426;55.872;37.462;2023-04-30T05:11:15;32.80;;;14.80;;
66384;SDS011;53426;55.872;37.462;2023-04-30T05:13:44;42.20;;;14.23;;
66384;SDS011;53426;55.872;37.462;2023-04-30T05:16:10;31.70;;;15.13;;
66384;SDS011;53426;55.872;37.462;2023-04-30T05:18:36;26.90;;;13.95;;
66384;SDS011;53426;55.872;37.462;2023-04-30T05:21:01;28.23;;;12.73;;
66384;SDS011;53426;55.872;37.462;2023-04-30T05:23:28;19.85;;;11.00;;
66384;SDS011;53426;55.872;37.462;2023-04-30T05:25:54;17.33;;;10.00;;
66384;SDS011;53426;55.872;37.462;2023-04-30T05:28:21;20.52;;;11.15;;
66384;SDS011;53426;55.872;37.462;2023-04-30T05:30:47;24.00;;;11.15;;
66384;SDS011;53426;55.872;37.462;2023-04-30T05:33:13;17.73;;;10.00;;
66384;SDS011;53426;55.872;37.462;2023-04-30T05:35:39;17.35;;;10.07;;
66384;SDS011;53426;55.872;37.462;2023-04-30T05:38:04;12.93;;;10.50;;
66384;SDS011;53426;55.872;37.462;2023-04-30T05:40:31;21.88;;;9.93;;
66384;SDS011;53426;55.872;37.462;2023-04-30T05:42:58;14.35;;;10.05;;
66384;SDS011;53426;55.872;37.462;2023-04-30T05:45:24;15.98;;;11.18;;
66384;SDS011;53426;55.872;37.462;2023-04-30T05:47:49;20.70;;;11.80;;
66384;SDS011;53426;55.872;37.462;2023-04-30T05:50:15;17.88;;;10.45;;
66384;SDS011;53426;55.872;37.462;2023-04-30T05:52:41;18.48;;;9.73;;
66384;SDS011;53426;55.872;37.462;2023-04-30T05:55:07;19.08;;;9.50;;
66384;SDS011;53426;55.872;37.462;2023-04-30T05:57:34;15.20;;;10.88;;
66384;SDS011;53426;55.872;37.462;2023-04-30T06:00:00;15.48;;;10.38;;
66384;SDS011;53426;55.872;37.462;2023-04-30T06:02:26;19.65;;;9.70;;
66384;SDS011;53426;55.872;37.462;2023-04-30T06:04:52;15.73;;;10.10;;
66384;SDS011;53426;55.872;37.462;2023-04-30T06:07:18;11.45;;;9.15;;
66384;SDS011;53426;55.872;37.462;2023-04-30T06:09:44;18.25;;;10.18;;
66384;SDS011;53426;55.872;37.462;2023-04-30T06:12:10;12.00;;;10.10;;
66384;SDS011;53426;55.872;37.462;2023-04-30T06:14:36;10.70;;;8.18;;
66384;SDS011;53426;55.872;37.462;2023-04-30T06:17:02;14.90;;;8.98;;
66384;SDS011;53426;55.872;37.462;2023-04-30T06:19:28;12.55;;;8.82;;
66384;SDS011;53426;55.872;37.462;2023-04-30T06:21:54;11.60;;;8.82;;
66384;SDS011;53426;55.872;37.462;2023-04-30T06:24:20;12.45;;;7.32;;
66384;SDS011;53426;55.872;37.462;2023-04-30T06:26:46;10.25;;;8.43;;
66384;SDS011;53426;55.872;37.462;2023-04-30T06:29:12;8.98;;;7.63;;
66384;SDS011;53426;55.872;37.462;2023-04-30T06:31:41;8.23;;;6.88;;
66384;SDS011;53426;55.872;37.462;2023-04-30T06:34:11;9.82;;;6.00;;
66384;SDS011;53426;55.872;37.462;2023-04-30T06:37:43;7.97;;;6.15;;
66384;SDS011;53426;55.872;37.462;2023-04-30T06:40:09;8.10;;;6.07;;
66384;SDS011;53426;55.872;37.462;2023-04-30T06:42:44;9.68;;;6.30;;
66384;SDS011;53426;55.872;37.462;2023-04-30T06:47:55;11.95;;;5.20;;
66384;SDS011;53426;55.872;37.462;2023-04-30T06:50:23;7.05;;;6.32;;
66384;SDS011;53426;55.872;37.462;2023-04-30T06:52:50;7.05;;;6.07;;
66384;SDS011;53426;55.872;37.462;2023-04-30T06:55:16;6.95;;;6.10;;
66384;SDS011;53426;55.872;37.462;2023-04-30T06:57:46;8.73;;;6.07;;
66384;SDS011;53426;55.872;37.462;2023-04-30T07:00:12;12.93;;;7.15;;
66384;SDS011;53426;55.872;37.462;2023-04-30T07:02:41;9.93;;;7.10;;
66384;SDS011;53426;55.872;37.462;2023-04-30T07:05:08;8.90;;;6.13;;
66384;SDS011;53426;55.872;37.462;2023-04-30T07:07:36;6.88;;;5.30;;
66384;SDS011;53426;55.872;37.462;2023-04-30T07:10:02;8.52;;;4.60;;
66384;SDS011;53426;55.872;37.462;2023-04-30T07:12:29;5.47;;;4.75;;
66384;SDS011;53426;55.872;37.462;2023-04-30T07:14:55;6.45;;;4.18;;
66384;SDS011;53426;55.872;37.462;2023-04-30T07:17:22;5.28;;;4.18;;
66384;SDS011;53426;55.872;37.462;2023-04-30T07:19:49;8.52;;;4.53;;
66384;SDS011;53426;55.872;37.462;2023-04-30T07:22:15;6.65;;;4.75;;
66384;SDS011;53426;55.872;37.462;2023-04-30T07:24:43;4.60;;;3.80;;
66384;SDS011;53426;55.872;37.462;2023-04-30T07:27:15;5.22;;;4.00;;
66384;SDS011;53426;55.872;37.462;2023-04-30T07:29:42;8.63;;;4.05;;
66384;SDS011;53426;55.872;37.462;2023-04-30T07:32:10;4.43;;;4.03;;
66384;SDS011;53426;55.872;37.462;2023-04-30T07:34:37;5.15;;;3.90;;
66384;SDS011;53426;55.872;37.462;2023-04-30T07:37:04;5.03;;;4.00;;
66384;SDS011;53426;55.872;37.462;2023-04-30T07:39:30;5.85;;;3.22;;
66384;SDS011;53426;55.872;37.462;2023-04-30T07:41:56;4.50;;;2.97;;
66384;SDS011;53426;55.872;37.462;2023-04-30T07:44:24;4.93;;;3.38;;
66384;SDS011;53426;55.872;37.462;2023-04-30T07:46:50;4.43;;;3.42;;
66384;SDS011;53426;55.872;37.462;2023-04-30T07:49:20;8.85;;;3.30;;
66384;SDS011;53426;55.872;37.462;2023-04-30T07:51:47;4.22;;;3.28;;
66384;SDS011;53426;55.872;37.462;2023-04-30T07:54:16;6.90;;;3.45;;
66384;SDS011;53426;55.872;37.462;2023-04-30T07:56:43;3.75;;;2.70;;
66384;SDS011;53426;55.872;37.462;2023-04-30T07:59:12;3.85;;;2.70;;
66384;SDS011;53426;55.872;37.462;2023-04-30T08:01:41;4.70;;;2.78;;
66384;SDS011;53426;55.872;37.462;2023-04-30T08:04:11;2.97;;;2.65;;
66384;SDS011;53426;55.872;37.462;2023-04-30T08:06:39;2.72;;;2.53;;
66384;SDS011;53426;55.872;37.462;2023-04-30T08:09:05;3.35;;;2.47;;
66384;SDS011;53426;55.872;37.462;2023-04-30T08:11:36;2.60;;;2.40;;
66384;SDS011;53426;55.872;37.462;2023-04-30T08:14:05;5.18;;;2.53;;
66384;SDS011;53426;55.872;37.462;2023-04-30T08:16:32;2.70;;;2.50;;
66384;SDS011;53426;55.872;37.462;2023-04-30T08:19:01;3.30;;;2.30;;
66384;SDS011;53426;55.872;37.462;2023-04-30T08:21:29;3.00;;;2.70;;
66384;SDS011;53426;55.872;37.462;2023-04-30T08:23:58;4.13;;;2.53;;
66384;SDS011;53426;55.872;37.462;2023-04-30T08:26:25;4.93;;;2.80;;
66384;SDS011;53426;55.872;37.462;2023-04-30T08:28:51;6.20;;;2.67;;
66384;SDS011;53426;55.872;37.462;2023-04-30T08:31:17;3.42;;;2.80;;
66384;SDS011;53426;55.872;37.462;2023-04-30T08:33:44;4.05;;;2.45;;
66384;SDS011;53426;55.872;37.462;2023-04-30T08:36:13;4.95;;;2.45;;
66384;SDS011;53426;55.872;37.462;2023-04-30T08:38:40;2.60;;;2.38;;
66384;SDS011;53426;55.872;37.462;2023-04-30T08:41:12;2.72;;;2.20;;
66384;SDS011;53426;55.872;37.462;2023-04-30T08:43:40;6.40;;;2.33;;
66384;SDS011;53426;55.872;37.462;2023-04-30T08:46:10;5.40;;;2.40;;
66384;SDS011;53426;55.872;37.462;2023-04-30T08:48:38;3.80;;;2.28;;
66384;SDS011;53426;55.872;37.462;2023-04-30T08:51:06;3.72;;;2.30;;
66384;SDS011;53426;55.872;37.462;2023-04-30T08:53:35;6.20;;;2.40;;
66384;SDS011;53426;55.872;37.462;2023-04-30T08:56:03;2.78;;;2.10;;
66384;SDS011;53426;55.872;37.462;2023-04-30T08:58:30;3.15;;;2.13;;
66384;SDS011;53426;55.872;37.462;2023-04-30T09:00:57;2.30;;;2.10;;
66384;SDS011;53426;55.872;37.462;2023-04-30T09:03:24;5.97;;;2.20;;
66384;SDS011;53426;55.872;37.462;2023-04-30T09:05:52;2.33;;;2.20;;
66384;SDS011;53426;55.872;37.462;2023-04-30T09:08:39;2.45;;;2.25;;
66384;SDS011;53426;55.872;37.462;2023-04-30T09:11:26;6.47;;;2.22;;
66384;SDS011;53426;55.872;37.462;2023-04-30T09:13:55;7.70;;;2.47;;
66384;SDS011;53426;55.872;37.462;2023-04-30T09:16:23;3.47;;;2.30;;
66384;SDS011;53426;55.872;37.462;2023-04-30T09:18:50;2.85;;;2.45;;
66384;SDS011;53426;55.872;37.462;2023-04-30T09:21:37;4.63;;;2.10;;
66384;SDS011;53426;55.872;37.462;2023-04-30T09:24:03;4.95;;;2.72;;
66384;SDS011;53426;55.872;37.462;2023-04-30T09:26:30;2.13;;;2.03;;
66384;SDS011;53426;55.872;37.462;2023-04-30T09:29:03;2.85;;;2.20;;
66384;SDS011;53426;55.872;37.462;2023-04-30T09:31:33;3.40;;;2.47;;
66384;SDS011;53426;55.872;37.462;2023-04-30T09:38:39;5.57;;;2.65;;
66384;SDS011;53426;55.872;37.462;2023-04-30T09:41:19;4.43;;;2.30;;
66384;SDS011;53426;55.872;37.462;2023-04-30T09:44:14;3.10;;;2.50;;
66384;SDS011;53426;55.872;37.462;2023-04-30T09:46:57;3.38;;;2.65;;
66384;SDS011;53426;55.872;37.462;2023-04-30T09:49:40;10.75;;;2.30;;
66384;SDS011;53426;55.872;37.462;2023-04-30T09:55:20;10.88;;;2.50;;
66384;SDS011;53426;55.872;37.462;2023-04-30T09:57:51;5.85;;;2.42;;
66384;SDS011;53426;55.872;37.462;2023-04-30T10:00:17;4.47;;;2.13;;
66384;SDS011;53426;55.872;37.462;2023-04-30T10:05:42;3.17;;;2.42;;
66384;SDS011;53426;55.872;37.462;2023-04-30T10:11:18;4.05;;;2.40;;
66384;SDS011;53426;55.872;37.462;2023-04-30T10:19:06;4.43;;;2.63;;
66384;SDS011;53426;55.872;37.462;2023-04-30T10:21:34;6.53;;;2.72;;
66384;SDS011;53426;55.872;37.462;2023-04-30T10:24:04;6.10;;;2.53;;
66384;SDS011;53426;55.872;37.462;2023-04-30T10:26:31;4.78;;;2.00;;
66384;SDS011;53426;55.872;37.462;2023-04-30T10:28:57;2.92;;;2.30;;
66384;SDS011;53426;55.872;37.462;2023-04-30T10:31:26;8.35;;;2.28;;
66384;SDS011;53426;55.872;37.462;2023-04-30T10:36:59;1.92;;;1.83;;
66384;SDS011;53426;55.872;37.462;2023-04-30T10:39:34;2.17;;;1.90;;
66384;SDS011;53426;55.872;37.462;2023-04-30T10:42:03;2.15;;;1.90;;
66384;SDS011;53426;55.872;37.462;2023-04-30T10:44:31;2.90;;;1.80;;
66384;SDS011;53426;55.872;37.462;2023-04-30T10:47:00;3.00;;;1.70;;
66384;SDS011;53426;55.872;37.462;2023-04-30T10:49:27;3.95;;;1.92;;
66384;SDS011;53426;55.872;37.462;2023-04-30T10:52:00;2.10;;;1.73;;
66384;SDS011;53426;55.872;37.462;2023-04-30T10:54:32;3.17;;;2.05;;
66384;SDS011;53426;55.872;37.462;2023-04-30T10:57:11;4.40;;;2.30;;
66384;SDS011;53426;55.872;37.462;2023-04-30T10:59:51;3.90;;;2.42;;
66384;SDS011;53426;55.872;37.462;2023-04-30T11:02:39;4.07;;;1.88;;
66384;SDS011;53426;55.872;37.462;2023-04-30T11:05:08;3.55;;;2.05;;
66384;SDS011;53426;55.872;37.462;2023-04-30T11:10:59;1.90;;;1.80;;
66384;SDS011;53426;55.872;37.462;2023-04-30T11:13:26;2.90;;;2.40;;
66384;SDS011;53426;55.872;37.462;2023-04-30T11:15:52;2.92;;;2.13;;
66384;SDS011;53426;55.872;37.462;2023-04-30T11:18:19;3.03;;;1.95;;
66384;SDS011;53426;55.872;37.462;2023-04-30T11:20:48;3.65;;;2.60;;
66384;SDS011;53426;55.872;37.462;2023-04-30T11:23:26;4.55;;;1.90;;
66384;SDS011;53426;55.872;37.462;2023-04-30T11:25:53;2.20;;;1.85;;
66384;SDS011;53426;55.872;37.462;2023-04-30T11:28:26;3.97;;;2.40;;
66384;SDS011;53426;55.872;37.462;2023-04-30T11:30:54;2.65;;;2.13;;
66384;SDS011;53426;55.872;37.462;2023-04-30T11:37:28;5.03;;;2.10;;
66384;SDS011;53426;55.872;37.462;2023-04-30T11:40:07;4.13;;;2.13;;
66384;SDS011;53426;55.872;37.462;2023-04-30T11:42:35;6.10;;;2.28;;
66384;SDS011;53426;55.872;37.462;2023-04-30T11:45:04;4.35;;;1.85;;
66384;SDS011;53426;55.872;37.462;2023-04-30T11:51:54;5.63;;;2.22;;
66384;SDS011;53426;55.872;37.462;2023-04-30T11:54:20;4.00;;;2.05;;
66384;SDS011;53426;55.872;37.462;2023-04-30T11:56:47;2.30;;;1.95;;
66384;SDS011;53426;55.872;37.462;2023-04-30T11:59:17;3.00;;;1.80;;
66384;SDS011;53426;55.872;37.462;2023-04-30T12:01:43;2.63;;;1.95;;
66384;SDS011;53426;55.872;37.462;2023-04-30T12:04:09;2.95;;;1.67;;
66384;SDS011;53426;55.872;37.462;2023-04-30T12:06:38;6.20;;;2.03;;
66384;SDS011;53426;55.872;37.462;2023-04-30T12:09:05;5.22;;;2.15;;
66384;SDS011;53426;55.872;37.462;2023-04-30T12:11:34;2.13;;;1.90;;
66384;SDS011;53426;55.872;37.462;2023-04-30T12:14:00;7.03;;;2.15;;
66384;SDS011;53426;55.872;37.462;2023-04-30T12:16:37;3.60;;;2.08;;
66384;SDS011;53426;55.872;37.462;2023-04-30T12:19:03;8.00;;;4.43;;
66384;SDS011;53426;55.872;37.462;2023-04-30T12:21:29;6.28;;;3.63;;
66384;SDS011;53426;55.872;37.462;2023-04-30T12:23:55;4.47;;;3.03;;
66384;SDS011;53426;55.872;37.462;2023-04-30T12:26:22;5.63;;;2.58;;
66384;SDS011;53426;55.872;37.462;2023-04-30T12:28:49;3.67;;;1.90;;
66384;SDS011;53426;55.872;37.462;2023-04-30T12:31:17;5.05;;;2.90;;
66384;SDS011;53426;55.872;37.462;2023-04-30T12:33:43;3.70;;;2.40;;
66384;SDS011;53426;55.872;37.462;2023-04-30T12:36:19;7.68;;;6.45;;
66384;SDS011;53426;55.872;37.462;2023-04-30T12:38:49;6.47;;;4.82;;
66384;SDS011;53426;55.872;37.462;2023-04-30T12:41:28;8.07;;;4.05;;
66384;SDS011;53426;55.872;37.462;2023-04-30T12:44:15;5.63;;;4.47;;
66384;SDS011;53426;55.872;37.462;2023-04-30T12:46:41;5.90;;;3.78;;
66384;SDS011;53426;55.872;37.462;2023-04-30T12:49:08;3.58;;;2.58;;
66384;SDS011;53426;55.872;37.462;2023-04-30T12:51:35;3.83;;;2.72;;
66384;SDS011;53426;55.872;37.462;2023-04-30T12:54:01;3.95;;;2.47;;
66384;SDS011;53426;55.872;37.462;2023-04-30T12:56:28;3.08;;;2.30;;
66384;SDS011;53426;55.872;37.462;2023-04-30T12:58:56;6.95;;;1.88;;
66384;SDS011;53426;55.872;37.462;2023-04-30T13:01:23;4.82;;;2.50;;
66384;SDS011;53426;55.872;37.462;2023-04-30T13:03:50;2.17;;;1.92;;
66384;SDS011;53426;55.872;37.462;2023-04-30T13:06:19;2.67;;;2.33;;
66384;SDS011;53426;55.872;37.462;2023-04-30T13:08:46;4.32;;;2.85;;
66384;SDS011;53426;55.872;37.462;2023-04-30T13:11:12;3.42;;;2.42;;
66384;SDS011;53426;55.872;37.462;2023-04-30T13:13:38;3.63;;;2.35;;
66384;SDS011;53426;55.872;37.462;2023-04-30T13:16:04;7.00;;;2.92;;
66384;SDS011;53426;55.872;37.462;2023-04-30T13:18:31;5.20;;;3.08;;
66384;SDS011;53426;55.872;37.462;2023-04-30T13:20:57;3.17;;;2.88;;
66384;SDS011;53426;55.872;37.462;2023-04-30T13:23:31;6.05;;;2.67;;
66384;SDS011;53426;55.872;37.462;2023-04-30T13:25:56;5.38;;;2.88;;
66384;SDS011;53426;55.872;37.462;2023-04-30T13:28:24;3.13;;;2.63;;
66384;SDS011;53426;55.872;37.462;2023-04-30T13:30:51;3.88;;;3.22;;
66384;SDS011;53426;55.872;37.462;2023-04-30T13:33:19;3.40;;;2.65;;
66384;SDS011;53426;55.872;37.462;2023-04-30T13:35:47;6.22;;;3.13;;
66384;SDS011;53426;55.872;37.462;2023-04-30T13:38:15;3.85;;;2.58;;
66384;SDS011;53426;55.872;37.462;2023-04-30T13:40:43;3.58;;;2.80;;
66384;SDS011;53426;55.872;37.462;2023-04-30T13:43:09;8.73;;;2.80;;
66384;SDS011;53426;55.872;37.462;2023-04-30T13:45:35;5.82;;;3.35;;
66384;SDS011;53426;55.872;37.462;2023-04-30T13:51:22;6.70;;;4.55;;
66384;SDS011;53426;55.872;37.462;2023-04-30T13:53:48;19.48;;;11.18;;
66384;SDS011;53426;55.872;37.462;2023-04-30T13:56:14;36.13;;;21.45;;
66384;SDS011;53426;55.872;37.462;2023-04-30T13:58:40;73.57;;;40.42;;
66384;SDS011;53426;55.872;37.462;2023-04-30T14:01:06;48.95;;;29.00;;
66384;SDS011;53426;55.872;37.462;2023-04-30T14:03:33;39.67;;;23.23;;
66384;SDS011;53426;55.872;37.462;2023-04-30T14:05:59;14.93;;;10.82;;
66384;SDS011;53426;55.872;37.462;2023-04-30T14:08:33;8.40;;;7.57;;
66384;SDS011;53426;55.872;37.462;2023-04-30T14:10:59;4.03;;;3.47;;
66384;SDS011;53426;55.872;37.462;2023-04-30T14:13:25;8.45;;;3.63;;
66384;SDS011;53426;55.872;37.462;2023-04-30T14:15:51;6.18;;;2.53;;
66384;SDS011;53426;55.872;37.462;2023-04-30T14:18:17;2.80;;;2.60;;
66384;SDS011;53426;55.872;37.462;2023-04-30T14:20:47;3.30;;;2.55;;
66384;SDS011;53426;55.872;37.462;2023-04-30T14:23:13;3.42;;;2.47;;
66384;SDS011;53426;55.872;37.462;2023-04-30T14:25:39;4.65;;;2.45;;
66384;SDS011;53426;55.872;37.462;2023-04-30T14:28:06;2.80;;;2.60;;
66384;SDS011;53426;55.872;37.462;2023-04-30T14:30:33;10.05;;;3.65;;
66384;SDS011;53426;55.872;37.462;2023-04-30T14:32:59;4.85;;;3.30;;
66384;SDS011;53426;55.872;37.462;2023-04-30T14:35:25;8.63;;;4.75;;
66384;SDS011;53426;55.872;37.462;2023-04-30T14:37:52;5.65;;;4.18;;
66384;SDS011;53426;55.872;37.462;2023-04-30T14:40:18;5.25;;;3.80;;
66384;SDS011;53426;55.872;37.462;2023-04-30T14:42:46;6.55;;;4.38;;
66384;SDS011;53426;55.872;37.462;2023-04-30T14:45:12;8.90;;;4.18;;
66384;SDS011;53426;55.872;37.462;2023-04-30T14:47:38;3.65;;;3.35;;
66384;SDS011;53426;55.872;37.462;2023-04-30T14:50:04;6.78;;;3.70;;
66384;SDS011;53426;55.872;37.462;2023-04-30T14:52:30;6.45;;;3.35;;
66384;SDS011;53426;55.872;37.462;2023-04-30T14:54:59;6.45;;;3.75;;
66384;SDS011;53426;55.872;37.462;2023-04-30T14:57:25;5.47;;;3.67;;
66384;SDS011;53426;55.872;37.462;2023-04-30T14:59:52;11.25;;;3.30;;
66384;SDS011;53426;55.872;37.462;2023-04-30T15:02:20;5.95;;;3.47;;
66384;SDS011;53426;55.872;37.462;2023-04-30T15:04:46;4.80;;;4.30;;
66384;SDS011;53426;55.872;37.462;2023-04-30T15:07:12;4.38;;;3.97;;
66384;SDS011;53426;55.872;37.462;2023-04-30T15:09:40;6.25;;;4.00;;
66384;SDS011;53426;55.872;37.462;2023-04-30T15:12:06;5.40;;;3.80;;
66384;SDS011;53426;55.872;37.462;2023-04-30T15:14:31;11.32;;;3.95;;
66384;SDS011;53426;55.872;37.462;2023-04-30T15:16:59;9.27;;;3.95;;
66384;SDS011;53426;55.872;37.462;2023-04-30T15:19:25;6.28;;;4.15;;
66384;SDS011;53426;55.872;37.462;2023-04-30T15:21:53;6.53;;;3.90;;
66384;SDS011;53426;55.872;37.462;2023-04-30T15:24:21;5.20;;;3.67;;
66384;SDS011;53426;55.872;37.462;2023-04-30T15:26:48;5.72;;;3.05;;
66384;SDS011;53426;55.872;37.462;2023-04-30T15:29:16;3.35;;;2.85;;